Farmersburg, Indiana
Current Conditions -  °F | °C
As of 6:53 AM on Thursday 23 Oct 2014 (Local Time) from KHUF Reporting Station
Clear Clear  
Wind Chill: 36°   Ceiling: Unl
Heat Index: 36°   Visibility: 7mi
Dew Point: 35°   Wind: 3mph
Humidity: 97%   Direction: 90°E
Pressure: 30.25"   Gusts: NA
Location:  39.25°N, 87.38°W
Report Text: KHUF 231053Z 09003KT 7SM CLR 02/02 A3025 RMK AO2 SLP246 T00220017
Loading
Personal Weather Stations






























Interactive Weather Map
Tropical Storm Tracking
New forecast layout! Learn more

10-Day Weather Forecast

Advertisements
Track Severe Weather on mobile